sensor_id;sensor_type;location;lat;lon;timestamp;pressure;altitude;pressure_sealevel;temperature;humidity
64862;BME280;62652;42.274;-71.436;2022-12-29T00:00:00;101740.0;;;5.222222222222221;57.7
64862;BME280;62652;42.274;-71.436;2022-12-29T00:01:00;101750.0;;;5.222222222222221;58.1
64862;BME280;62652;42.274;-71.436;2022-12-29T00:02:01;101750.0;;;5.222222222222221;57.9
64862;BME280;62652;42.274;-71.436;2022-12-29T00:03:02;101750.0;;;5.1111111111111125;58.3
64862;BME280;62652;42.274;-71.436;2022-12-29T00:04:01;101750.0;;;5.0;58.7
64862;BME280;62652;42.274;-71.436;2022-12-29T00:05:01;101760.0;;;4.8888888888888875;59.2
64862;BME280;62652;42.274;-71.436;2022-12-29T00:06:00;101750.0;;;4.777777777777779;59.3
64862;BME280;62652;42.274;-71.436;2022-12-29T00:07:01;101760.0;;;4.777777777777779;59.5
64862;BME280;62652;42.274;-71.436;2022-12-29T00:08:01;101760.0;;;4.777777777777779;59.7
64862;BME280;62652;42.274;-71.436;2022-12-29T00:09:01;101760.0;;;4.8888888888888875;59.3
64862;BME280;62652;42.274;-71.436;2022-12-29T00:10:01;101760.0;;;4.8888888888888875;59.2
64862;BME280;62652;42.274;-71.436;2022-12-29T00:11:00;101760.0;;;5.1111111111111125;59.1
64862;BME280;62652;42.274;-71.436;2022-12-29T00:12:02;101770.0;;;5.0;59.0
64862;BME280;62652;42.274;-71.436;2022-12-29T00:13:00;101760.0;;;5.1111111111111125;59.0
64862;BME280;62652;42.274;-71.436;2022-12-29T00:14:02;101760.0;;;5.1111111111111125;58.9
64862;BME280;62652;42.274;-71.436;2022-12-29T00:15:01;101770.0;;;5.0;59.1
64862;BME280;62652;42.274;-71.436;2022-12-29T00:16:00;101760.0;;;5.0;59.2
64862;BME280;62652;42.274;-71.436;2022-12-29T00:17:01;101760.0;;;5.0;59.3
64862;BME280;62652;42.274;-71.436;2022-12-29T00:18:00;101760.0;;;4.8888888888888875;59.5
64862;BME280;62652;42.274;-71.436;2022-12-29T00:19:02;101760.0;;;5.0;59.3
64862;BME280;62652;42.274;-71.436;2022-12-29T00:20:00;101760.0;;;5.222222222222221;59.0
64862;BME280;62652;42.274;-71.436;2022-12-29T00:21:01;101750.0;;;5.1111111111111125;59.0
64862;BME280;62652;42.274;-71.436;2022-12-29T00:22:01;101750.0;;;5.1111111111111125;59.1
64862;BME280;62652;42.274;-71.436;2022-12-29T00:23:00;101750.0;;;5.0;59.4
64862;BME280;62652;42.274;-71.436;2022-12-29T00:24:01;101750.0;;;4.8888888888888875;59.7
64862;BME280;62652;42.274;-71.436;2022-12-29T00:25:02;101750.0;;;5.0;59.8
64862;BME280;62652;42.274;-71.436;2022-12-29T00:26:03;101750.0;;;4.8888888888888875;59.8
64862;BME280;62652;42.274;-71.436;2022-12-29T00:27:10;101750.0;;;4.8888888888888875;60.2
64862;BME280;62652;42.274;-71.436;2022-12-29T00:28:01;101740.0;;;4.8888888888888875;60.0
64862;BME280;62652;42.274;-71.436;2022-12-29T00:29:01;101750.0;;;4.8888888888888875;60.1
64862;BME280;62652;42.274;-71.436;2022-12-29T00:30:01;101750.0;;;4.8888888888888875;59.9
64862;BME280;62652;42.274;-71.436;2022-12-29T00:31:01;101760.0;;;4.8888888888888875;60.0
64862;BME280;62652;42.274;-71.436;2022-12-29T00:32:00;101760.0;;;4.8888888888888875;60.1
64862;BME280;62652;42.274;-71.436;2022-12-29T00:33:04;101760.0;;;4.8888888888888875;60.2
64862;BME280;62652;42.274;-71.436;2022-12-29T00:34:01;101770.0;;;5.0;60.0
64862;BME280;62652;42.274;-71.436;2022-12-29T00:35:01;101760.0;;;5.0;59.9
64862;BME280;62652;42.274;-71.436;2022-12-29T00:36:03;101760.0;;;5.0;60.0
64862;BME280;62652;42.274;-71.436;2022-12-29T00:37:01;101750.0;;;5.0;60.2
64862;BME280;62652;42.274;-71.436;2022-12-29T00:38:04;101750.0;;;5.0;60.2
64862;BME280;62652;42.274;-71.436;2022-12-29T00:39:04;101750.0;;;5.0;60.3
64862;BME280;62652;42.274;-71.436;2022-12-29T00:40:01;101750.0;;;5.0;60.2
64862;BME280;62652;42.274;-71.436;2022-12-29T00:41:01;101750.0;;;4.8888888888888875;60.4
64862;BME280;62652;42.274;-71.436;2022-12-29T00:42:03;101740.0;;;4.8888888888888875;60.6
64862;BME280;62652;42.274;-71.436;2022-12-29T00:43:00;101740.0;;;4.8888888888888875;60.7
64862;BME280;62652;42.274;-71.436;2022-12-29T00:44:01;101730.0;;;5.0;60.4
64862;BME280;62652;42.274;-71.436;2022-12-29T00:45:00;101730.0;;;5.1111111111111125;60.0
64862;BME280;62652;42.274;-71.436;2022-12-29T00:46:01;101730.0;;;5.1111111111111125;60.1
64862;BME280;62652;42.274;-71.436;2022-12-29T00:47:01;101730.0;;;5.1111111111111125;59.9
64862;BME280;62652;42.274;-71.436;2022-12-29T00:48:01;101730.0;;;5.0;60.1
64862;BME280;62652;42.274;-71.436;2022-12-29T00:49:02;101730.0;;;4.8888888888888875;60.6
64862;BME280;62652;42.274;-71.436;2022-12-29T00:50:00;101720.0;;;4.8888888888888875;60.6
64862;BME280;62652;42.274;-71.436;2022-12-29T00:51:00;101720.0;;;4.8888888888888875;60.6
64862;BME280;62652;42.274;-71.436;2022-12-29T00:52:03;101730.0;;;5.0;60.4
64862;BME280;62652;42.274;-71.436;2022-12-29T00:53:01;101730.0;;;5.1111111111111125;60.2
64862;BME280;62652;42.274;-71.436;2022-12-29T00:54:00;101730.0;;;5.1111111111111125;59.9
64862;BME280;62652;42.274;-71.436;2022-12-29T00:55:00;101720.0;;;5.222222222222221;59.6
64862;BME280;62652;42.274;-71.436;2022-12-29T00:56:01;101730.0;;;5.222222222222221;59.5
64862;BME280;62652;42.274;-71.436;2022-12-29T00:57:02;101730.0;;;5.1111111111111125;59.7
64862;BME280;62652;42.274;-71.436;2022-12-29T00:58:01;101730.0;;;5.1111111111111125;59.7
64862;BME280;62652;42.274;-71.436;2022-12-29T00:59:01;101730.0;;;5.222222222222221;59.6
64862;BME280;62652;42.274;-71.436;2022-12-29T01:00:01;101730.0;;;5.222222222222221;59.4
64862;BME280;62652;42.274;-71.436;2022-12-29T01:01:02;101740.0;;;5.222222222222221;59.1
64862;BME280;62652;42.274;-71.436;2022-12-29T01:02:00;101730.0;;;5.222222222222221;59.6
64862;BME280;62652;42.274;-71.436;2022-12-29T01:03:00;101730.0;;;5.277777777777778;58.9
64862;BME280;62652;42.274;-71.436;2022-12-29T01:04:01;101730.0;;;5.222222222222221;59.1
64862;BME280;62652;42.274;-71.436;2022-12-29T01:05:00;101730.0;;;5.222222222222221;59.3
64862;BME280;62652;42.274;-71.436;2022-12-29T01:06:01;101730.0;;;5.1111111111111125;59.5
64862;BME280;62652;42.274;-71.436;2022-12-29T01:07:01;101730.0;;;5.1111111111111125;59.8
64862;BME280;62652;42.274;-71.436;2022-12-29T01:08:01;101720.0;;;5.0;59.8
64862;BME280;62652;42.274;-71.436;2022-12-29T01:09:02;101720.0;;;5.0;60.2
64862;BME280;62652;42.274;-71.436;2022-12-29T01:10:00;101720.0;;;5.0;60.2
64862;BME280;62652;42.274;-71.436;2022-12-29T01:11:02;101730.0;;;5.222222222222221;59.5
64862;BME280;62652;42.274;-71.436;2022-12-29T01:12:00;101730.0;;;5.222222222222221;59.1
64862;BME280;62652;42.274;-71.436;2022-12-29T01:13:00;101730.0;;;5.222222222222221;59.2
64862;BME280;62652;42.274;-71.436;2022-12-29T01:14:01;101720.0;;;5.1111111111111125;59.5
64862;BME280;62652;42.274;-71.436;2022-12-29T01:15:01;101720.0;;;5.1111111111111125;59.8
64862;BME280;62652;42.274;-71.436;2022-12-29T01:16:01;101720.0;;;5.1111111111111125;59.9
64862;BME280;62652;42.274;-71.436;2022-12-29T01:17:01;101720.0;;;5.1111111111111125;60.0
64862;BME280;62652;42.274;-71.436;2022-12-29T01:18:01;101720.0;;;5.1111111111111125;59.8
64862;BME280;62652;42.274;-71.436;2022-12-29T01:19:00;101720.0;;;5.0;60.1
64862;BME280;62652;42.274;-71.436;2022-12-29T01:20:01;101720.0;;;5.0;60.3
64862;BME280;62652;42.274;-71.436;2022-12-29T01:21:02;101720.0;;;5.0;60.1
64862;BME280;62652;42.274;-71.436;2022-12-29T01:22:01;101720.0;;;5.1111111111111125;59.6
64862;BME280;62652;42.274;-71.436;2022-12-29T01:23:01;101720.0;;;5.1111111111111125;59.8
64862;BME280;62652;42.274;-71.436;2022-12-29T01:24:01;101720.0;;;5.1111111111111125;59.8
64862;BME280;62652;42.274;-71.436;2022-12-29T01:25:00;101720.0;;;5.1111111111111125;59.6
64862;BME280;62652;42.274;-71.436;2022-12-29T01:26:09;101720.0;;;5.222222222222221;59.6
64862;BME280;62652;42.274;-71.436;2022-12-29T01:27:01;101720.0;;;5.1111111111111125;59.5
64862;BME280;62652;42.274;-71.436;2022-12-29T01:28:00;101720.0;;;5.1111111111111125;59.6
64862;BME280;62652;42.274;-71.436;2022-12-29T01:29:00;101720.0;;;5.0;59.7
64862;BME280;62652;42.274;-71.436;2022-12-29T01:30:00;101720.0;;;5.0;60.3
64862;BME280;62652;42.274;-71.436;2022-12-29T01:31:01;101720.0;;;5.0;60.0
64862;BME280;62652;42.274;-71.436;2022-12-29T01:32:01;101720.0;;;5.0;60.1
64862;BME280;62652;42.274;-71.436;2022-12-29T01:33:01;101720.0;;;5.0;60.0
64862;BME280;62652;42.274;-71.436;2022-12-29T01:34:01;101720.0;;;5.0;59.9
64862;BME280;62652;42.274;-71.436;2022-12-29T01:35:01;101730.0;;;5.0;60.3
64862;BME280;62652;42.274;-71.436;2022-12-29T01:36:01;101720.0;;;5.1111111111111125;59.9
64862;BME280;62652;42.274;-71.436;2022-12-29T01:37:00;101730.0;;;5.1111111111111125;59.7
64862;BME280;62652;42.274;-71.436;2022-12-29T01:38:01;101730.0;;;5.1111111111111125;60.0
64862;BME280;62652;42.274;-71.436;2022-12-29T01:39:00;101730.0;;;5.0;60.2
64862;BME280;62652;42.274;-71.436;2022-12-29T01:40:00;101730.0;;;5.0;60.2
64862;BME280;62652;42.274;-71.436;2022-12-29T01:41:02;101730.0;;;5.0;60.2
64862;BME280;62652;42.274;-71.436;2022-12-29T01:42:01;101730.0;;;5.1111111111111125;59.8
64862;BME280;62652;42.274;-71.436;2022-12-29T01:43:00;101730.0;;;5.1111111111111125;59.9
64862;BME280;62652;42.274;-71.436;2022-12-29T01:44:00;101730.0;;;5.1111111111111125;59.8
64862;BME280;62652;42.274;-71.436;2022-12-29T01:45:02;101740.0;;;5.1111111111111125;59.9
64862;BME280;62652;42.274;-71.436;2022-12-29T01:46:01;101730.0;;;5.1111111111111125;60.1
64862;BME280;62652;42.274;-71.436;2022-12-29T01:47:01;101740.0;;;5.1111111111111125;59.9
64862;BME280;62652;42.274;-71.436;2022-12-29T01:48:03;101740.0;;;5.1111111111111125;60.0
64862;BME280;62652;42.274;-71.436;2022-12-29T01:49:05;101740.0;;;5.1111111111111125;60.1
64862;BME280;62652;42.274;-71.436;2022-12-29T01:50:05;101730.0;;;5.0;60.1
64862;BME280;62652;42.274;-71.436;2022-12-29T01:51:01;101740.0;;;5.0;60.3
64862;BME280;62652;42.274;-71.436;2022-12-29T01:52:04;101730.0;;;4.8888888888888875;60.6
64862;BME280;62652;42.274;-71.436;2022-12-29T01:53:04;101740.0;;;4.8888888888888875;60.8
64862;BME280;62652;42.274;-71.436;2022-12-29T01:54:03;101730.0;;;4.8888888888888875;61.0
64862;BME280;62652;42.274;-71.436;2022-12-29T01:55:02;101730.0;;;5.0;60.4
64862;BME280;62652;42.274;-71.436;2022-12-29T01:56:05;101730.0;;;5.0;60.4
64862;BME280;62652;42.274;-71.436;2022-12-29T01:57:03;101730.0;;;5.0;60.5
64862;BME280;62652;42.274;-71.436;2022-12-29T01:58:03;101740.0;;;5.0;60.3
64862;BME280;62652;42.274;-71.436;2022-12-29T01:59:04;101740.0;;;4.8888888888888875;60.6
64862;BME280;62652;42.274;-71.436;2022-12-29T02:00:04;101740.0;;;4.8888888888888875;60.9
64862;BME280;62652;42.274;-71.436;2022-12-29T02:01:02;101740.0;;;5.0;60.6
64862;BME280;62652;42.274;-71.436;2022-12-29T02:02:01;101740.0;;;5.1111111111111125;60.4
64862;BME280;62652;42.274;-71.436;2022-12-29T02:03:01;101740.0;;;5.1111111111111125;60.3
64862;BME280;62652;42.274;-71.436;2022-12-29T02:04:01;101740.0;;;5.0;60.5
64862;BME280;62652;42.274;-71.436;2022-12-29T02:05:07;101750.0;;;5.0;60.8
64862;BME280;62652;42.274;-71.436;2022-12-29T02:06:03;101750.0;;;5.0;60.5
64862;BME280;62652;42.274;-71.436;2022-12-29T02:07:03;101750.0;;;4.777777777777779;61.1
64862;BME280;62652;42.274;-71.436;2022-12-29T02:08:01;101750.0;;;4.777777777777779;61.4
64862;BME280;62652;42.274;-71.436;2022-12-29T02:09:01;101750.0;;;4.777777777777779;61.6
64862;BME280;62652;42.274;-71.436;2022-12-29T02:10:01;101750.0;;;4.777777777777779;61.7
64862;BME280;62652;42.274;-71.436;2022-12-29T02:11:01;101740.0;;;4.8888888888888875;61.5
64862;BME280;62652;42.274;-71.436;2022-12-29T02:12:01;101740.0;;;4.777777777777779;61.7
64862;BME280;62652;42.274;-71.436;2022-12-29T02:13:00;101740.0;;;4.777777777777779;62.0
64862;BME280;62652;42.274;-71.436;2022-12-29T02:14:00;101740.0;;;4.722222222222222;62.1
64862;BME280;62652;42.274;-71.436;2022-12-29T02:15:02;101750.0;;;4.777777777777779;62.0
64862;BME280;62652;42.274;-71.436;2022-12-29T02:16:08;101750.0;;;4.777777777777779;61.9
64862;BME280;62652;42.274;-71.436;2022-12-29T02:17:09;101750.0;;;4.8888888888888875;61.6
64862;BME280;62652;42.274;-71.436;2022-12-29T02:18:14;101750.0;;;4.8888888888888875;61.7
64862;BME280;62652;42.274;-71.436;2022-12-29T02:19:19;101740.0;;;4.8888888888888875;61.6
64862;BME280;62652;42.274;-71.436;2022-12-29T02:20:18;101740.0;;;4.722222222222222;62.1
64862;BME280;62652;42.274;-71.436;2022-12-29T02:21:17;101740.0;;;4.722222222222222;62.2
64862;BME280;62652;42.274;-71.436;2022-12-29T02:22:10;101740.0;;;4.777777777777779;62.2
64862;BME280;62652;42.274;-71.436;2022-12-29T02:23:16;101740.0;;;4.777777777777779;62.2
64862;BME280;62652;42.274;-71.436;2022-12-29T02:24:16;101740.0;;;4.722222222222222;62.8
64862;BME280;62652;42.274;-71.436;2022-12-29T02:25:16;101740.0;;;4.61111111111111;62.9
64862;BME280;62652;42.274;-71.436;2022-12-29T02:26:15;101740.0;;;4.500000000000001;63.4
64862;BME280;62652;42.274;-71.436;2022-12-29T02:28:19;101740.0;;;4.722222222222222;63.1
64862;BME280;62652;42.274;-71.436;2022-12-29T02:30:15;101730.0;;;4.722222222222222;62.9
64862;BME280;62652;42.274;-71.436;2022-12-29T02:31:06;101720.0;;;4.722222222222222;63.0
64862;BME280;62652;42.274;-71.436;2022-12-29T02:32:03;101730.0;;;4.61111111111111;63.3
64862;BME280;62652;42.274;-71.436;2022-12-29T02:33:07;101720.0;;;4.61111111111111;63.5
64862;BME280;62652;42.274;-71.436;2022-12-29T02:34:09;101720.0;;;4.722222222222222;63.1
64862;BME280;62652;42.274;-71.436;2022-12-29T02:35:08;101720.0;;;4.722222222222222;63.0
64862;BME280;62652;42.274;-71.436;2022-12-29T02:36:08;101720.0;;;4.777777777777779;62.9
64862;BME280;62652;42.274;-71.436;2022-12-29T02:37:05;101720.0;;;4.777777777777779;62.8
64862;BME280;62652;42.274;-71.436;2022-12-29T02:38:12;101720.0;;;4.722222222222222;63.3
64862;BME280;62652;42.274;-71.436;2022-12-29T02:39:07;101720.0;;;4.61111111111111;63.5
64862;BME280;62652;42.274;-71.436;2022-12-29T02:40:07;101720.0;;;4.61111111111111;63.6
64862;BME280;62652;42.274;-71.436;2022-12-29T02:41:07;101720.0;;;4.61111111111111;63.8
64862;BME280;62652;42.274;-71.436;2022-12-29T02:42:07;101720.0;;;4.61111111111111;63.7
64862;BME280;62652;42.274;-71.436;2022-12-29T02:43:04;101720.0;;;4.61111111111111;63.7
64862;BME280;62652;42.274;-71.436;2022-12-29T02:44:07;101720.0;;;4.61111111111111;63.9
64862;BME280;62652;42.274;-71.436;2022-12-29T02:45:04;101720.0;;;4.61111111111111;64.0
64862;BME280;62652;42.274;-71.436;2022-12-29T02:46:06;101720.0;;;4.500000000000001;64.4
64862;BME280;62652;42.274;-71.436;2022-12-29T02:47:08;101720.0;;;4.388888888888888;64.8
64862;BME280;62652;42.274;-71.436;2022-12-29T02:48:04;101730.0;;;4.2777777777777795;65.3
64862;BME280;62652;42.274;-71.436;2022-12-29T02:49:08;101730.0;;;4.2777777777777795;65.3
64862;BME280;62652;42.274;-71.436;2022-12-29T02:50:05;101730.0;;;4.388888888888888;65.4
64862;BME280;62652;42.274;-71.436;2022-12-29T02:51:03;101730.0;;;4.2777777777777795;65.5
64862;BME280;62652;42.274;-71.436;2022-12-29T02:52:03;101730.0;;;4.2777777777777795;65.5
64862;BME280;62652;42.274;-71.436;2022-12-29T02:53:04;101730.0;;;4.388888888888888;65.2
64862;BME280;62652;42.274;-71.436;2022-12-29T02:54:01;101730.0;;;4.500000000000001;64.8
64862;BME280;62652;42.274;-71.436;2022-12-29T02:55:01;101740.0;;;4.61111111111111;64.5
64862;BME280;62652;42.274;-71.436;2022-12-29T02:56:00;101740.0;;;4.500000000000001;64.7
64862;BME280;62652;42.274;-71.436;2022-12-29T02:57:00;101740.0;;;4.388888888888888;65.2
64862;BME280;62652;42.274;-71.436;2022-12-29T02:58:15;101740.0;;;4.388888888888888;65.2
64862;BME280;62652;42.274;-71.436;2022-12-29T02:59:01;101740.0;;;4.500000000000001;64.9
64862;BME280;62652;42.274;-71.436;2022-12-29T03:00:05;101740.0;;;4.61111111111111;64.4
64862;BME280;62652;42.274;-71.436;2022-12-29T03:01:15;101740.0;;;4.61111111111111;64.5
64862;BME280;62652;42.274;-71.436;2022-12-29T03:02:15;101740.0;;;4.61111111111111;64.5
64862;BME280;62652;42.274;-71.436;2022-12-29T03:03:10;101730.0;;;4.61111111111111;64.5
64862;BME280;62652;42.274;-71.436;2022-12-29T03:04:09;101730.0;;;4.722222222222222;64.2
64862;BME280;62652;42.274;-71.436;2022-12-29T03:05:14;101730.0;;;4.61111111111111;64.5
64862;BME280;62652;42.274;-71.436;2022-12-29T03:06:13;101730.0;;;4.500000000000001;64.7
64862;BME280;62652;42.274;-71.436;2022-12-29T03:07:09;101730.0;;;4.500000000000001;65.0
64862;BME280;62652;42.274;-71.436;2022-12-29T03:08:06;101730.0;;;4.500000000000001;65.2
64862;BME280;62652;42.274;-71.436;2022-12-29T03:09:11;101730.0;;;4.500000000000001;65.2
64862;BME280;62652;42.274;-71.436;2022-12-29T03:10:05;101730.0;;;4.500000000000001;65.1
64862;BME280;62652;42.274;-71.436;2022-12-29T03:11:03;101720.0;;;4.500000000000001;65.2
64862;BME280;62652;42.274;-71.436;2022-12-29T03:12:10;101720.0;;;4.388888888888888;65.5
64862;BME280;62652;42.274;-71.436;2022-12-29T03:13:04;101720.0;;;4.2777777777777795;65.8
64862;BME280;62652;42.274;-71.436;2022-12-29T03:14:05;101720.0;;;4.2777777777777795;65.9
64862;BME280;62652;42.274;-71.436;2022-12-29T03:15:06;101710.0;;;4.2777777777777795;66.3
64862;BME280;62652;42.274;-71.436;2022-12-29T03:16:07;101720.0;;;4.222222222222223;66.6
64862;BME280;62652;42.274;-71.436;2022-12-29T03:17:04;101720.0;;;4.2777777777777795;66.7
64862;BME280;62652;42.274;-71.436;2022-12-29T03:18:06;101720.0;;;4.222222222222223;66.9
64862;BME280;62652;42.274;-71.436;2022-12-29T03:19:06;101720.0;;;4.222222222222223;67.2
64862;BME280;62652;42.274;-71.436;2022-12-29T03:20:06;101730.0;;;4.222222222222223;67.3
64862;BME280;62652;42.274;-71.436;2022-12-29T03:21:05;101730.0;;;4.222222222222223;67.3
64862;BME280;62652;42.274;-71.436;2022-12-29T03:22:04;101740.0;;;4.111111111111111;67.6
64862;BME280;62652;42.274;-71.436;2022-12-29T03:23:02;101740.0;;;4.222222222222223;67.7
64862;BME280;62652;42.274;-71.436;2022-12-29T03:24:02;101740.0;;;4.2777777777777795;67.2
64862;BME280;62652;42.274;-71.436;2022-12-29T03:25:03;101740.0;;;4.2777777777777795;67.1
64862;BME280;62652;42.274;-71.436;2022-12-29T03:26:04;101740.0;;;4.222222222222223;67.5
64862;BME280;62652;42.274;-71.436;2022-12-29T03:27:03;101740.0;;;4.222222222222223;67.8
64862;BME280;62652;42.274;-71.436;2022-12-29T03:28:05;101740.0;;;4.222222222222223;67.7
64862;BME280;62652;42.274;-71.436;2022-12-29T03:29:00;101740.0;;;4.222222222222223;67.9
64862;BME280;62652;42.274;-71.436;2022-12-29T03:30:03;101730.0;;;4.2777777777777795;67.2
64862;BME280;62652;42.274;-71.436;2022-12-29T03:31:03;101740.0;;;4.2777777777777795;67.4
64862;BME280;62652;42.274;-71.436;2022-12-29T03:32:02;101740.0;;;4.222222222222223;67.6
64862;BME280;62652;42.274;-71.436;2022-12-29T03:33:04;101740.0;;;4.222222222222223;67.8
64862;BME280;62652;42.274;-71.436;2022-12-29T03:34:01;101740.0;;;4.111111111111111;68.2
64862;BME280;62652;42.274;-71.436;2022-12-29T03:35:02;101740.0;;;4.000000000000002;68.8
64862;BME280;62652;42.274;-71.436;2022-12-29T03:36:03;101740.0;;;4.000000000000002;69.0
64862;BME280;62652;42.274;-71.436;2022-12-29T03:37:05;101740.0;;;3.888888888888889;69.5
64862;BME280;62652;42.274;-71.436;2022-12-29T03:38:07;101740.0;;;3.888888888888889;69.7
64862;BME280;62652;42.274;-71.436;2022-12-29T03:39:07;101740.0;;;3.888888888888889;69.6
64862;BME280;62652;42.274;-71.436;2022-12-29T03:40:01;101750.0;;;3.888888888888889;69.7
64862;BME280;62652;42.274;-71.436;2022-12-29T03:41:04;101750.0;;;4.000000000000002;69.4
64862;BME280;62652;42.274;-71.436;2022-12-29T03:42:04;101750.0;;;4.000000000000002;69.6
64862;BME280;62652;42.274;-71.436;2022-12-29T03:43:02;101750.0;;;3.888888888888889;69.8
64862;BME280;62652;42.274;-71.436;2022-12-29T03:44:00;101750.0;;;4.000000000000002;69.9
64862;BME280;62652;42.274;-71.436;2022-12-29T03:45:01;101750.0;;;3.888888888888889;70.0
64862;BME280;62652;42.274;-71.436;2022-12-29T03:46:01;101750.0;;;3.888888888888889;70.2
64862;BME280;62652;42.274;-71.436;2022-12-29T03:47:01;101750.0;;;4.000000000000002;70.0
64862;BME280;62652;42.274;-71.436;2022-12-29T03:48:01;101750.0;;;4.000000000000002;69.9
64862;BME280;62652;42.274;-71.436;2022-12-29T03:49:01;101750.0;;;3.888888888888889;70.2
64862;BME280;62652;42.274;-71.436;2022-12-29T03:50:00;101750.0;;;3.888888888888889;70.3
64862;BME280;62652;42.274;-71.436;2022-12-29T03:51:01;101750.0;;;3.7777777777777763;70.6
64862;BME280;62652;42.274;-71.436;2022-12-29T03:52:01;101750.0;;;3.7777777777777763;70.8
64862;BME280;62652;42.274;-71.436;2022-12-29T03:53:01;101750.0;;;3.7777777777777763;71.1
64862;BME280;62652;42.274;-71.436;2022-12-29T03:54:02;101750.0;;;3.7777777777777763;71.2
64862;BME280;62652;42.274;-71.436;2022-12-29T03:55:00;101750.0;;;3.7777777777777763;71.3
64862;BME280;62652;42.274;-71.436;2022-12-29T03:56:00;101750.0;;;3.7777777777777763;71.3
64862;BME280;62652;42.274;-71.436;2022-12-29T03:57:00;101740.0;;;3.7777777777777763;71.4
64862;BME280;62652;42.274;-71.436;2022-12-29T03:58:00;101740.0;;;3.7777777777777763;71.6
64862;BME280;62652;42.274;-71.436;2022-12-29T03:59:00;101740.0;;;3.7222222222222237;71.9
64862;BME280;62652;42.274;-71.436;2022-12-29T04:00:02;101740.0;;;3.7222222222222237;72.2
64862;BME280;62652;42.274;-71.436;2022-12-29T04:01:00;101750.0;;;3.7222222222222237;72.5
64862;BME280;62652;42.274;-71.436;2022-12-29T04:02:00;101750.0;;;3.7222222222222237;72.1
64862;BME280;62652;42.274;-71.436;2022-12-29T04:03:01;101750.0;;;3.7222222222222237;72.4
64862;BME280;62652;42.274;-71.436;2022-12-29T04:04:00;101750.0;;;3.7777777777777763;72.1
64862;BME280;62652;42.274;-71.436;2022-12-29T04:05:01;101750.0;;;4.000000000000002;71.6
64862;BME280;62652;42.274;-71.436;2022-12-29T04:06:01;101750.0;;;4.000000000000002;71.3
64862;BME280;62652;42.274;-71.436;2022-12-29T04:07:01;101750.0;;;4.000000000000002;71.1
64862;BME280;62652;42.274;-71.436;2022-12-29T04:08:01;101750.0;;;3.888888888888889;71.5
64862;BME280;62652;42.274;-71.436;2022-12-29T04:09:01;101760.0;;;3.7777777777777763;72.0
64862;BME280;62652;42.274;-71.436;2022-12-29T04:10:00;101750.0;;;3.7777777777777763;72.2
64862;BME280;62652;42.274;-71.436;2022-12-29T04:11:01;101750.0;;;3.7777777777777763;72.1
64862;BME280;62652;42.274;-71.436;2022-12-29T04:12:00;101760.0;;;3.7777777777777763;72.5
64862;BME280;62652;42.274;-71.436;2022-12-29T04:13:01;101750.0;;;3.7222222222222237;73.0
64862;BME280;62652;42.274;-71.436;2022-12-29T04:14:01;101750.0;;;3.7777777777777763;72.7
64862;BME280;62652;42.274;-71.436;2022-12-29T04:15:00;101750.0;;;3.7222222222222237;72.8
64862;BME280;62652;42.274;-71.436;2022-12-29T04:16:01;101760.0;;;3.7777777777777763;72.7
64862;BME280;62652;42.274;-71.436;2022-12-29T04:17:00;101760.0;;;3.7777777777777763;72.8
64862;BME280;62652;42.274;-71.436;2022-12-29T04:18:00;101760.0;;;3.7777777777777763;72.8
64862;BME280;62652;42.274;-71.436;2022-12-29T04:19:01;101760.0;;;3.7777777777777763;72.6
64862;BME280;62652;42.274;-71.436;2022-12-29T04:20:00;101770.0;;;3.7777777777777763;72.7
64862;BME280;62652;42.274;-71.436;2022-12-29T04:21:01;101770.0;;;3.888888888888889;72.2
64862;BME280;62652;42.274;-71.436;2022-12-29T04:22:00;101770.0;;;3.888888888888889;72.0
64862;BME280;62652;42.274;-71.436;2022-12-29T04:23:01;101770.0;;;3.888888888888889;72.3
64862;BME280;62652;42.274;-71.436;2022-12-29T04:24:01;101760.0;;;3.7777777777777763;72.5
64862;BME280;62652;42.274;-71.436;2022-12-29T04:25:00;101760.0;;;3.7777777777777763;72.7
64862;BME280;62652;42.274;-71.436;2022-12-29T04:26:01;101760.0;;;3.888888888888889;72.4
64862;BME280;62652;42.274;-71.436;2022-12-29T04:27:01;101750.0;;;3.888888888888889;72.5
64862;BME280;62652;42.274;-71.436;2022-12-29T04:28:01;101740.0;;;3.7777777777777763;72.4
64862;BME280;62652;42.274;-71.436;2022-12-29T04:29:01;101730.0;;;3.7777777777777763;72.5
64862;BME280;62652;42.274;-71.436;2022-12-29T04:30:00;101730.0;;;3.7777777777777763;72.6
64862;BME280;62652;42.274;-71.436;2022-12-29T04:31:01;101730.0;;;3.888888888888889;72.6
64862;BME280;62652;42.274;-71.436;2022-12-29T04:32:00;101730.0;;;3.888888888888889;72.3
64862;BME280;62652;42.274;-71.436;2022-12-29T04:33:00;101730.0;;;3.7777777777777763;72.3
64862;BME280;62652;42.274;-71.436;2022-12-29T04:34:01;101730.0;;;3.7777777777777763;72.7
64862;BME280;62652;42.274;-71.436;2022-12-29T04:35:00;101730.0;;;3.7777777777777763;73.0
64862;BME280;62652;42.274;-71.436;2022-12-29T04:36:01;101740.0;;;3.7777777777777763;73.1
64862;BME280;62652;42.274;-71.436;2022-12-29T04:37:01;101740.0;;;3.7777777777777763;73.0
64862;BME280;62652;42.274;-71.436;2022-12-29T04:38:01;101740.0;;;3.888888888888889;72.5